Time;durP1;ratioP1;P1;durP2;ratioP2;P2;SDS_P1;SDS_P2;PMS_P1;PMS_P2;Temp;Humidity;BMP_temperature;BMP_pressure;BME280_temperature;BME280_humidity;BME280_pressure;Samples;Min_cycle;Max_cycle;Signal;HPM_P1;HPM_P2
2022/12/14 00:01:56;;;;;;;51.45;20.45;;;3.90;52.90;;;;;;5076350;28;20447;-83
2022/12/14 00:05:28;;;;;;;41.50;18.60;;;3.90;52.40;;;;;;5086687;27;1345053;-81
2022/12/14 00:07:53;;;;;;;46.25;18.35;;;4.00;52.30;;;;;;5111348;28;20031;-85
2022/12/14 00:10:19;;;;;;;36.67;18.30;;;4.10;52.50;;;;;;5111447;28;20024;-81
2022/12/14 00:12:44;;;;;;;34.25;17.67;;;4.30;52.10;;;;;;5093273;28;20023;-82
2022/12/14 00:15:11;;;;;;;37.53;18.58;;;4.30;51.80;;;;;;5111624;28;20077;-81
2022/12/14 00:17:36;;;;;;;40.17;19.60;;;4.40;51.80;;;;;;5093477;28;20020;-81
2022/12/14 00:20:03;;;;;;;34.33;17.17;;;4.40;51.60;;;;;;5111733;28;20347;-83
2022/12/14 00:22:28;;;;;;;37.22;18.88;;;4.30;51.90;;;;;;5093390;28;20038;-85
2022/12/14 00:24:54;;;;;;;39.28;18.55;;;4.20;52.10;;;;;;5093273;28;20462;-84
2022/12/14 00:27:19;;;;;;;43.35;19.70;;;4.00;52.50;;;;;;5093519;28;20106;-87
2022/12/14 00:29:45;;;;;;;42.08;21.35;;;4.00;53.30;;;;;;5081585;28;20471;-84
2022/12/14 00:32:11;;;;;;;42.13;20.60;;;4.00;53.70;;;;;;5072477;28;20459;-85
2022/12/14 00:34:36;;;;;;;45.92;22.65;;;4.00;54.40;;;;;;5073229;28;20482;-85
2022/12/14 00:37:02;;;;;;;49.40;22.60;;;4.20;54.60;;;;;;5090617;28;20020;-83
2022/12/14 00:39:28;;;;;;;45.00;21.83;;;4.30;54.20;;;;;;5091515;28;20027;-82
2022/12/14 00:41:53;;;;;;;47.15;23.67;;;4.30;54.70;;;;;;5099416;28;20016;-82
2022/12/14 00:44:20;;;;;;;42.40;22.75;;;4.30;53.80;;;;;;5072459;28;20034;-81
2022/12/14 00:46:46;;;;;;;51.78;22.70;;;4.30;54.40;;;;;;5072375;28;20018;-82
2022/12/14 00:49:11;;;;;;;49.45;24.27;;;4.30;54.30;;;;;;5090812;28;20059;-88
2022/12/14 00:51:37;;;;;;;48.67;24.08;;;4.30;54.50;;;;;;5072644;28;20025;-87
2022/12/14 00:54:03;;;;;;;51.28;23.83;;;4.50;54.70;;;;;;5107235;28;20011;-87
2022/12/14 00:56:29;;;;;;;57.25;25.45;;;4.50;54.50;;;;;;5096189;28;20012;-87
2022/12/14 00:58:55;;;;;;;54.40;25.73;;;4.50;54.50;;;;;;5085963;28;20031;-87
2022/12/14 01:01:20;;;;;;;51.80;25.08;;;4.50;54.80;;;;;;5075678;28;20107;-87
2022/12/14 01:03:47;;;;;;;56.45;24.75;;;4.60;55.30;;;;;;5090409;28;20043;-86
2022/12/14 01:06:20;;;;;;;55.92;25.27;;;4.70;54.60;;;;;;5109114;28;20024;-84
2022/12/14 01:08:47;;;;;;;56.10;26.90;;;4.70;54.90;;;;;;5090853;28;20367;-84
2022/12/14 01:11:14;;;;;;;62.53;27.48;;;4.90;54.80;;;;;;5072303;28;20082;-84
2022/12/14 01:13:40;;;;;;;65.00;27.30;;;4.80;54.80;;;;;;5071912;28;20028;-85
2022/12/14 01:16:12;;;;;;;62.88;27.55;;;5.00;54.60;;;;;;5098589;28;20020;-86
2022/12/14 01:18:39;;;;;;;61.72;25.95;;;4.90;55.10;;;;;;5072311;28;20024;-86
2022/12/14 01:21:18;;;;;;;62.50;27.63;;;4.70;55.40;;;;;;5063277;28;20027;-82
2022/12/14 01:23:45;;;;;;;61.05;27.00;;;4.30;56.50;;;;;;5096955;28;20416;-85
2022/12/14 01:26:12;;;;;;;60.60;27.33;;;4.30;56.70;;;;;;5077590;28;20028;-88
2022/12/14 01:28:38;;;;;;;59.65;25.88;;;3.90;57.40;;;;;;5075113;28;20046;-84
2022/12/14 01:31:07;;;;;;;68.55;28.75;;;3.80;57.80;;;;;;5058706;28;20058;-84
2022/12/14 01:33:32;;;;;;;68.85;28.10;;;3.40;58.50;;;;;;5058330;28;20111;-83
2022/12/14 01:36:06;;;;;;;63.45;27.23;;;3.60;59.30;;;;;;5076068;28;20462;-83
2022/12/14 01:38:32;;;;;;;61.00;27.58;;;3.80;58.50;;;;;;5075896;28;20111;-82
2022/12/14 01:40:58;;;;;;;61.08;26.02;;;4.30;57.30;;;;;;5076332;28;20150;-87
2022/12/14 01:43:24;;;;;;;60.58;26.77;;;4.40;56.70;;;;;;5092463;28;20028;-85
2022/12/14 01:45:54;;;;;;;62.70;27.45;;;4.30;56.30;;;;;;5060631;28;20467;-84
2022/12/14 01:48:21;;;;;;;56.15;24.88;;;4.20;57.20;;;;;;5070985;28;20038;-86
2022/12/14 01:50:47;;;;;;;55.13;24.02;;;4.00;57.10;;;;;;5057827;28;20074;-82
2022/12/14 01:53:19;;;;;;;54.72;23.15;;;3.50;58.20;;;;;;5075835;28;20029;-82
2022/12/14 01:55:52;;;;;;;55.78;21.75;;;3.30;59.40;;;;;;5075851;28;20037;-87
2022/12/14 01:58:21;;;;;;;57.90;22.40;;;3.60;59.10;;;;;;5073404;28;20055;-82
2022/12/14 02:00:49;;;;;;;59.45;21.92;;;3.70;59.00;;;;;;5058108;28;20113;-84
2022/12/14 02:03:25;;;;;;;54.40;23.27;;;4.00;58.20;;;;;;5086655;28;20024;-83
2022/12/14 02:05:55;;;;;;;54.15;22.10;;;4.20;57.50;;;;;;5061513;28;20036;-84
2022/12/14 02:08:23;;;;;;;56.50;24.20;;;4.40;57.70;;;;;;5076473;28;20020;-83
2022/12/14 02:10:50;;;;;;;59.40;23.63;;;4.60;57.20;;;;;;5077826;28;20045;-87
2022/12/14 02:13:30;;;;;;;59.90;23.65;;;4.80;56.30;;;;;;5073442;28;20028;-83
2022/12/14 02:15:56;;;;;;;56.55;22.63;;;5.10;55.90;;;;;;5066536;28;20027;-84
2022/12/14 02:18:27;;;;;;;62.17;23.85;;;5.10;55.50;;;;;;5077418;28;20037;-84
2022/12/14 02:21:08;;;;;;;55.88;22.90;;;5.30;55.70;;;;;;5057353;28;20107;-80
2022/12/14 02:23:43;;;;;;;50.50;23.38;;;5.40;54.50;;;;;;5057489;28;20047;-86
2022/12/14 02:26:08;;;;;;;51.70;22.88;;;5.20;54.80;;;;;;5057534;28;20021;-83
2022/12/14 02:29:05;;;;;;;51.17;22.35;;;5.30;54.20;;;;;;5074587;28;20069;-86
2022/12/14 02:31:56;;;;;;;51.35;23.23;;;5.40;54.40;;;;;;5075326;28;20012;-85
2022/12/14 02:34:45;;;;;;;46.88;22.13;;;5.60;53.70;;;;;;5062830;28;20024;-83
2022/12/14 02:37:56;;;;;;;52.00;23.05;;;5.70;53.40;;;;;;4981235;28;20561;-83
2022/12/14 02:40:28;;;;;;;51.58;22.95;;;5.70;53.50;;;;;;4972507;28;20065;-82
2022/12/14 02:43:31;;;;;;;53.42;23.15;;;5.80;53.40;;;;;;5014901;28;20022;-83
2022/12/14 02:46:06;;;;;;;56.08;23.20;;;5.70;53.60;;;;;;5029232;28;20042;-82
2022/12/14 02:48:55;;;;;;;54.17;22.88;;;5.60;53.80;;;;;;4996755;28;20393;-85
2022/12/14 02:51:43;;;;;;;47.03;20.95;;;5.70;53.80;;;;;;4996775;28;20030;-84
2022/12/14 02:54:19;;;;;;;53.28;22.55;;;5.80;53.50;;;;;;5013056;28;20034;-82
2022/12/14 02:57:00;;;;;;;52.22;22.65;;;5.80;53.40;;;;;;4996370;28;20108;-83
2022/12/14 02:59:27;;;;;;;54.15;22.52;;;5.30;53.40;;;;;;4995943;28;20025;-82
2022/12/14 03:01:54;;;;;;;57.72;22.60;;;4.60;55.50;;;;;;5188553;22;20045;-83
2022/12/14 03:04:20;;;;;;;62.22;23.38;;;4.30;56.30;;;;;;5045875;28;20419;-86
2022/12/14 03:07:30;;;;;;;54.35;22.02;;;4.30;56.70;;;;;;5046877;28;20020;-86
2022/12/14 03:10:16;;;;;;;60.42;22.58;;;4.50;56.80;;;;;;5044118;28;20587;-84
2022/12/14 03:12:46;;;;;;;52.65;22.50;;;4.80;55.80;;;;;;5049027;28;20664;-87
2022/12/14 03:15:14;;;;;;;;;;;5.00;55.80;;;;;;5052731;28;20021;-86
2022/12/14 03:17:45;;;;;;;57.05;22.58;;;5.20;54.80;;;;;;5054125;28;19901;-87
2022/12/14 03:20:16;;;;;;;52.72;22.85;;;5.30;54.80;;;;;;5054082;28;20028;-87
2022/12/14 03:26:33;;;;;;;61.55;23.98;;;5.40;54.50;;;;;;4992054;28;20036;-84
2022/12/14 03:29:13;;;;;;;59.38;23.42;;;5.20;55.30;;;;;;4990426;28;20088;-84
2022/12/14 03:31:41;;;;;;;62.30;24.20;;;5.40;54.70;;;;;;4985539;28;20046;-87
2022/12/14 03:34:12;;;;;;;63.50;25.20;;;5.60;54.40;;;;;;4974774;28;20034;-87
2022/12/14 03:37:03;;;;;;;61.47;26.00;;;5.50;54.90;;;;;;4992938;28;20038;-84
2022/12/14 03:39:33;;;;;;;65.95;25.25;;;5.50;54.40;;;;;;4981994;28;20137;-87
2022/12/14 03:42:24;;;;;;;65.15;24.55;;;5.50;54.30;;;;;;5011694;28;20030;-85
2022/12/14 03:45:20;;;;;;;60.28;23.73;;;5.40;54.70;;;;;;4994148;28;20038;-86
2022/12/14 03:47:56;;;;;;;64.07;25.88;;;5.10;55.50;;;;;;4976128;28;20034;-85
2022/12/14 03:50:24;;;;;;;58.70;23.48;;;4.90;55.70;;;;;;4992709;28;20125;-86
2022/12/14 03:53:14;;;;;;;54.90;23.40;;;4.50;56.10;;;;;;4976938;28;20035;-84
2022/12/14 03:55:45;;;;;;;60.70;22.95;;;4.20;57.40;;;;;;4989221;28;20446;-83
2022/12/14 03:58:54;;;;;;;60.17;24.33;;;3.90;57.40;;;;;;4973155;28;20035;-82
2022/12/14 04:01:31;;;;;;;54.40;22.20;;;3.90;58.10;;;;;;4903051;28;20047;-83
2022/12/14 04:04:11;;;;;;;58.63;23.08;;;4.30;57.50;;;;;;4975671;28;20030;-83
2022/12/14 04:06:54;;;;;;;59.97;23.85;;;4.00;57.30;;;;;;4976273;28;20354;-82
2022/12/14 04:09:49;;;;;;;63.45;23.83;;;3.80;58.40;;;;;;4957031;28;20077;-84
2022/12/14 04:21:10;;;;;;;55.40;22.17;;;3.10;59.90;;;;;;4992746;28;20405;-83
2022/12/14 04:26:33;;;;;;;58.35;22.95;;;3.60;59.70;;;;;;4992612;28;20045;-82
2022/12/14 04:32:03;;;;;;;56.15;22.98;;;4.30;57.80;;;;;;4991924;28;20072;-84
2022/12/14 04:34:31;;;;;;;51.70;21.70;;;4.30;57.90;;;;;;4975437;28;20026;-82
2022/12/14 04:37:01;;;;;;;53.50;21.48;;;3.90;58.00;;;;;;4966360;28;20445;-83
2022/12/14 04:39:42;;;;;;;59.22;22.35;;;3.80;58.90;;;;;;5032004;28;20052;-85
2022/12/14 04:42:10;;;;;;;58.33;22.33;;;4.10;58.40;;;;;;5033041;28;20060;-85
2022/12/14 04:44:47;;;;;;;63.90;22.80;;;4.30;57.80;;;;;;5031835;28;20469;-81
2022/12/14 04:47:16;;;;;;;55.28;22.33;;;4.70;56.90;;;;;;5065024;28;20430;-86
2022/12/14 04:49:58;;;;;;;58.20;23.02;;;5.10;56.10;;;;;;5059602;28;20029;-81
2022/12/14 04:52:46;;;;;;;53.17;22.98;;;5.10;56.00;;;;;;5036182;28;20025;-83
2022/12/14 04:55:34;;;;;;;60.13;22.25;;;5.20;55.40;;;;;;5036767;28;20026;-81
2022/12/14 04:58:08;;;;;;;54.60;23.20;;;5.10;55.40;;;;;;5053270;28;20029;-83
2022/12/14 05:00:41;;;;;;;62.97;23.48;;;5.00;55.50;;;;;;5055537;28;20083;-81
2022/12/14 05:03:26;;;;;;;59.08;22.67;;;4.80;56.10;;;;;;5056327;28;20107;-80
2022/12/14 05:05:57;;;;;;;62.53;23.23;;;4.50;56.30;;;;;;5055247;28;20059;-82
2022/12/14 05:08:36;;;;;;;58.75;22.73;;;4.30;57.20;;;;;;5055205;28;20033;-82
2022/12/14 05:11:10;;;;;;;59.17;23.37;;;4.40;57.10;;;;;;5056534;28;20021;-81
2022/12/14 05:13:47;;;;;;;61.03;23.55;;;4.30;56.80;;;;;;5070599;28;20028;-82
2022/12/14 05:16:16;;;;;;;59.92;21.92;;;4.00;57.50;;;;;;5076536;28;20029;-86
2022/12/14 05:18:43;;;;;;;55.55;22.75;;;3.70;58.00;;;;;;5075191;28;20082;-84
2022/12/14 05:21:45;;;;;;;67.80;24.30;;;3.60;59.10;;;;;;5074973;28;20440;-83
2022/12/14 05:23:57;;;;;;;56.00;22.48;;;3.70;59.10;;;;;;5069563;28;20542;-84
2022/12/14 05:26:23;;;;;;;58.85;23.15;;;4.00;58.70;;;;;;5056489;28;20025;-84
2022/12/14 05:28:48;;;;;;;59.33;23.15;;;4.30;58.00;;;;;;5054928;28;20029;-84
2022/12/14 05:31:14;;;;;;;59.80;22.98;;;4.30;58.00;;;;;;5056296;28;20029;-83
2022/12/14 05:33:40;;;;;;;55.50;23.27;;;4.30;57.90;;;;;;5056648;28;20017;-84
2022/12/14 05:36:06;;;;;;;61.30;23.17;;;4.30;58.10;;;;;;5054071;28;20464;-85
2022/12/14 05:38:35;;;;;;;61.85;23.33;;;4.30;58.10;;;;;;5054662;28;20036;-86
2022/12/14 05:41:01;;;;;;;56.40;23.10;;;4.30;58.00;;;;;;5053603;28;20024;-82
2022/12/14 05:43:27;;;;;;;59.80;24.38;;;4.40;58.00;;;;;;5049611;28;20025;-83
2022/12/14 05:46:00;;;;;;;67.85;25.08;;;4.20;58.50;;;;;;5053171;28;20032;-81
2022/12/14 05:48:26;;;;;;;63.65;24.48;;;4.10;58.60;;;;;;5065402;28;20039;-81
2022/12/14 05:50:55;;;;;;;65.85;24.83;;;3.90;58.80;;;;;;5066327;28;20459;-84
2022/12/14 05:56:37;;;;;;;66.70;24.70;;;4.00;59.90;;;;;;5011486;28;20077;-82
2022/12/14 05:59:33;;;;;;;61.15;23.85;;;4.20;59.60;;;;;;5004930;28;20029;-82
2022/12/14 06:01:59;;;;;;;60.90;22.55;;;4.40;59.10;;;;;;5012849;28;20049;-80
2022/12/14 06:04:24;;;;;;;57.80;24.08;;;4.30;59.00;;;;;;4997481;28;20037;-82
2022/12/14 06:06:50;;;;;;;61.80;23.95;;;4.50;59.30;;;;;;5012745;28;20069;-83
2022/12/14 06:09:17;;;;;;;63.10;25.50;;;4.70;58.70;;;;;;4996809;28;20027;-82
2022/12/14 06:11:44;;;;;;;59.58;24.67;;;5.00;58.30;;;;;;5010357;28;20121;-81
2022/12/14 06:14:58;;;;;;;64.20;24.65;;;5.20;57.50;;;;;;4978206;28;20023;-84
2022/12/14 06:17:23;;;;;;;54.92;22.55;;;5.00;57.70;;;;;;4998477;28;20036;-80
2022/12/14 06:19:55;;;;;;;67.07;24.65;;;4.60;57.80;;;;;;5001822;28;20105;-81
2022/12/14 06:22:21;;;;;;;57.58;25.38;;;3.90;59.10;;;;;;4977697;28;20404;-80
2022/12/14 06:24:46;;;;;;;61.58;22.90;;;4.00;59.90;;;;;;4977706;28;20544;-80
2022/12/14 06:27:18;;;;;;;63.80;23.70;;;4.10;59.20;;;;;;5013924;28;20037;-81
2022/12/14 06:29:44;;;;;;;59.22;24.88;;;4.00;59.40;;;;;;5038734;28;20063;-81
2022/12/14 06:32:53;;;;;;;59.55;23.92;;;4.00;60.10;;;;;;5053476;28;20056;-82
2022/12/14 06:39:19;;;;;;;58.63;22.63;;;3.80;60.60;;;;;;5013108;28;20032;-82
2022/12/14 06:41:49;;;;;;;60.80;26.15;;;4.30;59.40;;;;;;4995970;28;20033;-82
2022/12/14 06:44:18;;;;;;;68.65;26.67;;;4.50;59.20;;;;;;4996603;28;20132;-82
2022/12/14 06:47:23;;;;;;;79.32;28.33;;;4.70;59.10;;;;;;4995462;28;20029;-83
2022/12/14 06:49:49;;;;;;;57.17;25.02;;;4.90;58.90;;;;;;4938002;29;20031;-84
2022/12/14 06:52:15;;;;;;;49.42;23.15;;;5.10;58.90;;;;;;4939400;29;20115;-82
2022/12/14 06:55:29;;;;;;;47.83;21.98;;;5.30;59.20;;;;;;4934245;29;20035;-83
2022/12/14 06:58:00;;;;;;;41.67;20.52;;;5.30;59.80;;;;;;4937661;29;20023;-86
2022/12/14 07:00:31;;;;;;;43.40;21.13;;;5.20;59.70;;;;;;4933421;29;20082;-81
2022/12/14 07:04:06;;;;;;;48.20;22.88;;;4.80;60.20;;;;;;4942334;29;20094;-82
2022/12/14 07:10:11;;;;;;;42.17;19.17;;;5.10;60.10;;;;;;4935687;29;20047;-83
2022/12/14 07:16:18;;;;;;;35.78;17.92;;;5.00;60.50;;;;;;4979840;28;20041;-81
2022/12/14 07:21:41;;;;;;;43.20;19.35;;;5.70;58.50;;;;;;5533563;22;20074;-82
2022/12/14 07:24:08;;;;;;;41.90;20.13;;;6.00;58.00;;;;;;5033733;28;20049;-84
2022/12/14 07:26:33;;;;;;;37.03;19.17;;;6.20;57.00;;;;;;5036364;28;20032;-83
2022/12/14 07:28:59;;;;;;;35.75;16.88;;;6.00;57.80;;;;;;5036184;28;20029;-82
2022/12/14 07:31:27;;;;;;;34.13;18.48;;;5.80;57.60;;;;;;5070561;28;20072;-81
2022/12/14 07:34:11;;;;;;;35.88;17.88;;;6.00;57.80;;;;;;5037844;28;20387;-83
2022/12/14 07:36:36;;;;;;;35.85;17.73;;;6.10;57.40;;;;;;5036097;28;20673;-83
2022/12/14 07:39:35;;;;;;;31.27;17.15;;;6.30;56.80;;;;;;5048915;28;20482;-82
2022/12/14 07:42:00;;;;;;;32.05;16.95;;;6.30;56.90;;;;;;5063642;28;20120;-81
2022/12/14 07:44:26;;;;;;;31.52;15.40;;;5.90;56.80;;;;;;5065208;28;20032;-82
2022/12/14 07:49:52;;;;;;;28.50;16.00;;;5.50;58.50;;;;;;4991855;28;20038;-80
2022/12/14 07:52:18;;;;;;;31.73;16.65;;;5.60;57.70;;;;;;4976051;28;20120;-83
2022/12/14 07:54:43;;;;;;;32.30;16.08;;;5.80;57.90;;;;;;4979944;28;20405;-82
2022/12/14 07:57:09;;;;;;;32.53;17.70;;;5.80;57.70;;;;;;4996183;28;20417;-78
2022/12/14 07:59:53;;;;;;;33.78;17.73;;;5.80;58.20;;;;;;4995324;28;20045;-84
2022/12/14 08:02:25;;;;;;;43.85;20.45;;;5.90;57.30;;;;;;4998792;28;20057;-81
2022/12/14 08:04:51;;;;;;;36.83;18.08;;;5.80;57.50;;;;;;5010114;28;20448;-85
2022/12/14 08:07:25;;;;;;;30.35;16.75;;;5.80;57.70;;;;;;4995136;28;20034;-80
2022/12/14 08:09:51;;;;;;;27.00;14.77;;;5.50;58.40;;;;;;5011490;28;20036;-78
2022/12/14 08:12:16;;;;;;;29.13;15.65;;;5.40;58.30;;;;;;5002402;28;20030;-80
2022/12/14 08:14:42;;;;;;;29.73;17.45;;;5.80;57.40;;;;;;4982525;28;20117;-82
2022/12/14 08:17:08;;;;;;;29.30;15.07;;;5.90;57.70;;;;;;4982851;28;20056;-81
2022/12/14 08:19:33;;;;;;;29.10;16.38;;;6.30;56.80;;;;;;4999265;28;20060;-84
2022/12/14 08:21:59;;;;;;;42.83;21.48;;;6.40;56.70;;;;;;5014956;28;20036;-82
2022/12/14 08:24:25;;;;;;;34.88;18.13;;;6.50;56.00;;;;;;4993568;28;20031;-84
2022/12/14 08:26:50;;;;;;;42.47;22.77;;;6.50;56.20;;;;;;5040390;28;20085;-84
2022/12/14 08:29:17;;;;;;;33.90;18.38;;;6.40;56.10;;;;;;5039223;28;20039;-87
2022/12/14 08:31:43;;;;;;;37.55;18.90;;;6.20;56.60;;;;;;5050648;28;20025;-83
2022/12/14 08:34:08;;;;;;;64.43;30.50;;;6.30;56.40;;;;;;5058320;28;20033;-88
2022/12/14 08:36:34;;;;;;;38.22;19.58;;;6.30;56.10;;;;;;5045763;28;20056;-83
2022/12/14 08:39:08;;;;;;;61.67;32.67;;;6.30;56.10;;;;;;5049419;28;20086;-82
2022/12/14 08:41:35;;;;;;;50.95;25.58;;;6.40;56.40;;;;;;5058004;28;20028;-81
2022/12/14 08:44:02;;;;;;;32.92;19.42;;;6.50;56.10;;;;;;5058617;28;20033;-84
2022/12/14 08:46:31;;;;;;;42.75;25.33;;;6.50;56.70;;;;;;5076925;28;20021;-78
2022/12/14 08:48:57;;;;;;;62.33;33.60;;;6.30;56.00;;;;;;5058810;28;20349;-81
2022/12/14 08:51:25;;;;;;;43.65;23.05;;;6.00;56.80;;;;;;5058760;28;20486;-81
2022/12/14 08:53:51;;;;;;;44.88;23.33;;;6.10;57.30;;;;;;5058863;28;20120;-87
2022/12/14 08:56:20;;;;;;;41.05;22.60;;;6.40;56.80;;;;;;5058989;28;20025;-86
2022/12/14 09:00:39;;;;;;;45.15;23.73;;;6.50;55.70;;;;;;5091525;27;20366;-85
2022/12/14 09:03:05;;;;;;;47.20;23.73;;;6.60;55.80;;;;;;5091309;28;20066;-86
2022/12/14 09:05:31;;;;;;;39.42;21.05;;;6.80;55.90;;;;;;5091283;28;20073;-81
2022/12/14 09:07:56;;;;;;;28.27;16.27;;;7.10;55.30;;;;;;5090274;28;20021;-80
2022/12/14 09:10:22;;;;;;;31.23;17.40;;;7.20;54.90;;;;;;5091302;28;20046;-80
2022/12/14 09:12:48;;;;;;;46.72;25.08;;;7.20;54.20;;;;;;5089978;28;20097;-80
2022/12/14 09:15:13;;;;;;;31.10;15.95;;;7.20;54.20;;;;;;5091260;28;20016;-81
2022/12/14 09:17:39;;;;;;;39.00;23.10;;;7.30;54.40;;;;;;5091028;28;20394;-82
2022/12/14 09:20:05;;;;;;;34.03;19.92;;;7.10;54.40;;;;;;5091013;28;20034;-86
2022/12/14 09:22:31;;;;;;;29.63;15.90;;;6.90;54.80;;;;;;5090976;28;20078;-86
2022/12/14 09:24:57;;;;;;;28.60;16.90;;;7.00;54.80;;;;;;5091058;28;20024;-89
2022/12/14 09:27:23;;;;;;;36.78;20.67;;;7.00;54.90;;;;;;5089605;28;20024;-88
2022/12/14 09:29:49;;;;;;;37.70;22.08;;;7.10;54.90;;;;;;5090810;28;20036;-90
2022/12/14 09:32:15;;;;;;;44.40;26.27;;;7.10;54.50;;;;;;5090810;28;20028;-87
2022/12/14 09:34:40;;;;;;;38.00;22.70;;;7.20;54.30;;;;;;5090730;28;20361;-85
2022/12/14 09:37:06;;;;;;;26.63;15.48;;;7.30;54.20;;;;;;5090417;28;20016;-91
2022/12/14 09:39:32;;;;;;;31.50;16.42;;;7.30;54.50;;;;;;5088990;28;20036;-87
2022/12/14 09:42:07;;;;;;;27.48;15.13;;;7.40;54.10;;;;;;5088852;28;20107;-81
2022/12/14 09:44:45;;;;;;;32.47;17.52;;;7.40;53.80;;;;;;5088765;28;20410;-80
2022/12/14 09:47:31;;;;;;;38.53;23.48;;;7.50;53.40;;;;;;5089012;28;20020;-80
2022/12/14 09:50:21;;;;;;;31.10;16.60;;;7.40;53.90;;;;;;5090267;28;20016;-80
2022/12/14 09:52:48;;;;;;;29.23;16.07;;;7.60;53.70;;;;;;5090206;28;20032;-81
2022/12/14 09:55:36;;;;;;;35.13;17.45;;;7.60;53.20;;;;;;5089094;28;20024;-83
2022/12/14 09:58:02;;;;;;;36.83;18.30;;;7.00;54.00;;;;;;5088806;28;20062;-83
2022/12/14 10:00:34;;;;;;;36.10;17.70;;;6.60;55.60;;;;;;5089619;28;20423;-86
2022/12/14 10:03:35;;;;;;;36.33;18.58;;;6.20;55.30;;;;;;5088597;28;20070;-80
2022/12/14 10:06:16;;;;;;;37.92;17.02;;;6.00;56.30;;;;;;5088431;28;20070;-80
2022/12/14 10:08:49;;;;;;;41.70;18.92;;;5.70;56.50;;;;;;5088448;28;20028;-81
2022/12/14 10:11:32;;;;;;;41.90;20.98;;;5.40;57.20;;;;;;5079382;28;20070;-86
2022/12/14 10:14:06;;;;;;;40.08;19.40;;;5.30;57.90;;;;;;5074898;28;20119;-79
2022/12/14 10:16:50;;;;;;;35.80;18.02;;;5.60;57.70;;;;;;5074772;28;20028;-82
2022/12/14 10:19:40;;;;;;;38.53;18.23;;;5.50;57.00;;;;;;5074900;28;20144;-87
2022/12/14 10:22:15;;;;;;;36.90;18.58;;;4.60;59.00;;;;;;5057397;28;20032;-80
2022/12/14 10:24:53;;;;;;;36.17;17.77;;;4.40;59.80;;;;;;5073744;28;20028;-80
2022/12/14 10:27:25;;;;;;;37.63;17.42;;;4.20;60.00;;;;;;5074075;28;20029;-84
2022/12/14 10:29:59;;;;;;;36.72;17.00;;;4.20;60.40;;;;;;5074030;28;20174;-87
2022/12/14 10:32:36;;;;;;;39.70;18.23;;;4.40;60.00;;;;;;5057409;28;20040;-82
2022/12/14 10:35:13;;;;;;;40.58;18.63;;;4.30;60.20;;;;;;5057061;28;20091;-81
2022/12/14 10:37:42;;;;;;;40.40;19.38;;;4.30;60.70;;;;;;5056975;28;20028;-80
2022/12/14 10:40:29;;;;;;;39.25;17.98;;;4.50;60.20;;;;;;5084646;27;1392988;-85
2022/12/14 10:43:12;;;;;;;34.88;17.23;;;4.90;59.80;;;;;;5111302;28;20059;-82
2022/12/14 10:45:53;;;;;;;37.65;18.23;;;5.00;59.50;;;;;;5093627;28;20122;-86
2022/12/14 10:48:22;;;;;;;35.88;17.40;;;5.10;59.30;;;;;;5093523;28;20020;-86
2022/12/14 10:51:21;;;;;;;36.05;17.83;;;5.00;59.30;;;;;;5093121;28;20038;-86
2022/12/14 10:53:55;;;;;;;33.85;16.13;;;5.10;58.90;;;;;;5093163;28;20049;-85
2022/12/14 10:56:28;;;;;;;37.17;17.50;;;4.50;59.20;;;;;;5093231;28;20073;-83
2022/12/14 10:59:20;;;;;;;34.53;17.23;;;4.10;61.00;;;;;;5093459;28;20074;-86
2022/12/14 11:01:50;;;;;;;34.92;16.60;;;4.00;60.80;;;;;;5093683;28;20032;-83
2022/12/14 11:04:43;;;;;;;32.85;16.63;;;3.90;61.60;;;;;;5093343;28;20024;-85
2022/12/14 11:07:12;;;;;;;32.47;15.95;;;3.80;62.10;;;;;;5093573;28;20069;-80
2022/12/14 11:09:39;;;;;;;33.33;15.18;;;4.20;61.50;;;;;;5093054;28;20028;-82
2022/12/14 11:12:12;;;;;;;37.85;18.27;;;4.20;60.30;;;;;;5093003;28;20016;-80
2022/12/14 11:14:50;;;;;;;32.08;16.75;;;4.10;61.30;;;;;;5092806;28;20028;-78
2022/12/14 11:17:58;;;;;;;31.83;15.77;;;4.10;60.90;;;;;;5092561;28;20024;-80
2022/12/14 11:20:26;;;;;;;34.78;16.23;;;3.90;60.70;;;;;;4995394;28;20060;-83
2022/12/14 11:23:07;;;;;;;28.65;15.73;;;3.70;61.60;;;;;;4972788;28;20037;-81
2022/12/14 11:25:34;;;;;;;33.17;16.00;;;3.60;62.30;;;;;;4972654;28;20026;-79
2022/12/14 11:28:20;;;;;;;34.25;16.20;;;3.70;62.20;;;;;;4989118;28;20033;-80
2022/12/14 11:31:01;;;;;;;30.48;15.15;;;3.60;62.10;;;;;;4972926;28;20497;-83
2022/12/14 11:33:47;;;;;;;32.17;16.15;;;3.40;62.40;;;;;;4988979;28;20034;-85
2022/12/14 11:36:37;;;;;;;34.55;16.80;;;3.50;62.30;;;;;;4972564;28;20030;-80
2022/12/14 11:39:17;;;;;;;33.00;16.10;;;3.10;63.60;;;;;;4967635;28;20042;-80
2022/12/14 11:41:58;;;;;;;35.28;17.08;;;3.40;63.20;;;;;;4988767;28;20023;-78
2022/12/14 11:44:27;;;;;;;35.58;16.83;;;3.40;62.90;;;;;;4988504;28;20065;-81
2022/12/14 11:46:59;;;;;;;28.73;14.67;;;3.70;62.60;;;;;;4972323;28;20433;-79
2022/12/14 11:49:36;;;;;;;34.78;17.27;;;3.90;61.30;;;;;;4972460;28;20042;-82
2022/12/14 11:54:01;;;;;;;32.45;15.68;;;4.30;60.20;;;;;;5084803;27;1382258;-85
2022/12/14 11:56:27;;;;;;;34.60;16.30;;;4.10;60.80;;;;;;5076862;28;20042;-85
2022/12/14 11:58:53;;;;;;;34.60;16.23;;;4.20;61.30;;;;;;5093167;28;20020;-83
2022/12/14 12:01:25;;;;;;;32.22;15.45;;;4.40;60.40;;;;;;5093134;28;20118;-87
2022/12/14 12:03:55;;;;;;;33.70;17.55;;;4.20;61.00;;;;;;5093830;28;20344;-83
2022/12/14 12:06:24;;;;;;;30.77;15.30;;;4.30;60.90;;;;;;5093228;28;20028;-83
2022/12/14 12:08:59;;;;;;;33.42;15.70;;;4.20;60.50;;;;;;5092907;28;20028;-80
2022/12/14 12:11:31;;;;;;;32.35;15.73;;;4.20;61.10;;;;;;5092450;28;20024;-79
2022/12/14 12:14:13;;;;;;;30.50;16.00;;;4.50;60.50;;;;;;5110775;28;20032;-79
2022/12/14 12:16:42;;;;;;;32.60;15.68;;;4.60;59.90;;;;;;5092742;28;20026;-79
2022/12/14 12:19:11;;;;;;;31.75;15.98;;;4.40;60.50;;;;;;5092304;28;20024;-81
2022/12/14 12:21:40;;;;;;;33.55;16.42;;;4.40;60.60;;;;;;5092855;28;20449;-79
2022/12/14 12:24:24;;;;;;;35.90;17.73;;;4.40;60.80;;;;;;5092510;28;20023;-79
2022/12/14 12:26:58;;;;;;;33.17;16.65;;;4.70;60.20;;;;;;5110562;28;20028;-78
2022/12/14 12:29:30;;;;;;;33.45;16.23;;;4.90;60.00;;;;;;5092399;28;20493;-79
2022/12/14 12:32:05;;;;;;;33.63;15.38;;;4.90;59.00;;;;;;5092251;28;20518;-79
2022/12/14 12:34:37;;;;;;;33.63;15.77;;;4.60;59.90;;;;;;5110585;28;20024;-76
2022/12/14 12:37:08;;;;;;;29.27;15.48;;;4.30;60.00;;;;;;5092388;28;20024;-84
2022/12/14 12:39:35;;;;;;;29.58;15.48;;;4.10;61.60;;;;;;5092468;28;20034;-76
2022/12/14 12:42:25;;;;;;;31.55;15.73;;;4.40;61.00;;;;;;5110707;28;20024;-79
2022/12/14 12:45:04;;;;;;;30.33;15.07;;;4.20;60.80;;;;;;5092168;28;20356;-78
2022/12/14 12:47:47;;;;;;;31.58;15.85;;;4.10;61.00;;;;;;5092065;28;20470;-85
2022/12/14 12:50:20;;;;;;;32.97;16.08;;;4.00;62.00;;;;;;5086036;28;20050;-78
2022/12/14 12:52:57;;;;;;;31.55;15.52;;;4.00;61.80;;;;;;5092112;28;20524;-87
2022/12/14 12:55:25;;;;;;;30.75;14.63;;;4.00;61.80;;;;;;5092222;28;20466;-82
2022/12/14 12:57:54;;;;;;;34.65;16.80;;;3.90;61.40;;;;;;5092626;28;20027;-85
2022/12/14 13:00:26;;;;;;;34.45;16.70;;;3.90;61.70;;;;;;5110205;28;20024;-84
2022/12/14 13:03:00;;;;;;;35.30;16.40;;;3.80;62.10;;;;;;5091718;28;20125;-77
2022/12/14 13:05:29;;;;;;;34.22;16.33;;;3.90;62.20;;;;;;5077993;28;20383;-78
2022/12/14 13:07:57;;;;;;;33.67;15.73;;;4.10;62.00;;;;;;5095981;28;20032;-86
2022/12/14 13:10:25;;;;;;;35.88;17.38;;;4.30;61.40;;;;;;5078525;28;20028;-80
2022/12/14 13:13:00;;;;;;;35.08;16.58;;;4.40;61.30;;;;;;5096351;28;20028;-86
2022/12/14 13:15:30;;;;;;;37.72;18.05;;;4.80;60.60;;;;;;5096400;28;20020;-85
2022/12/14 13:17:57;;;;;;;;;;;5.20;59.70;;;;;;5078550;28;20032;-84
2022/12/14 13:20:28;;;;;;;35.03;17.23;;;5.20;59.50;;;;;;5078287;28;19904;-81
2022/12/14 13:22:55;;;;;;;35.38;16.20;;;5.00;59.40;;;;;;5077983;28;20028;-82
2022/12/14 13:25:35;;;;;;;31.65;15.85;;;4.40;60.50;;;;;;5077927;28;20028;-79
2022/12/14 13:28:40;;;;;;;159.10;117.53;;;4.00;61.50;;;;;;5078333;28;20078;-82
2022/12/14 13:31:31;;;;;;;34.35;16.33;;;3.80;62.30;;;;;;5078073;28;20036;-88
2022/12/14 13:34:21;;;;;;;32.65;15.82;;;3.90;62.70;;;;;;5078300;28;20139;-83
2022/12/14 13:37:12;;;;;;;42.58;18.65;;;4.30;61.80;;;;;;5078197;28;20024;-81
2022/12/14 13:40:15;;;;;;;34.00;16.35;;;4.50;60.70;;;;;;5095964;28;20065;-81
2022/12/14 13:43:15;;;;;;;33.35;16.63;;;5.00;60.30;;;;;;5077902;28;20479;-85
2022/12/14 13:45:45;;;;;;;28.50;14.60;;;5.10;59.40;;;;;;5078132;28;20085;-84
2022/12/14 13:48:24;;;;;;;25.35;13.77;;;4.80;59.70;;;;;;5096034;28;20024;-85
2022/12/14 13:50:59;;;;;;;28.42;14.40;;;4.80;60.60;;;;;;5077287;28;20111;-84
2022/12/14 13:55:36;;;;;;;65.07;57.08;;;5.30;58.80;;;;;;5087965;27;1356657;-87
2022/12/14 13:58:42;;;;;;;31.33;15.38;;;5.30;59.40;;;;;;5093741;28;20035;-84